メインページ
METAR-TAF:

METAR-TAF

空港 :

ラ・アウロラ国際空港

グアテマラシティ, グアテマラ

緯度: 14-35N, 経度: 090-31W, 海抜: 1489m

現時点の気象観測

当レポートは52分前の11:00(UTC)に作成
の風 6kt
気温 18°C
湿度 88%
気圧 1022 hPa
視程10km以上
高度1400ftの千切れ雲あり

METAR: MGGT 221100Z 36006KT 9999 BKN014 18/16 Q1022 A3018

時間: 05:52 (11:52 UTC)

予報

予報は22日の 12時(UTC)から 23日の 12時(UTC)まで有効
の風 kt
視程10km以上
高度1400ftの雲は散在している
高度8000ftの雲は散在している
22日の 12時(UTC)から 22日の 14時(UTC)まで一時的に
視程: 5000m
高度1200ftの千切れ雲あり
高度8000ftの千切れ雲あり
靄, 霧雨
22日の 14時(UTC)から 22日の 16時(UTC)まで徐々に
の風 8kt
高度1800ftの雲は散在している
22日の 19時(UTC)から 23日の 02時(UTC)まで一時的に
の風 12kt
視程: 7000m
高度2000ftの雲は散在している, 塔状積雲.
高度2500ftの雲はほとんどない, 積乱雲.
激しい雷雨, 雨
23日の 02時(UTC)から 23日の 04時(UTC)まで徐々に
変向風 3kt
高度1400ftの雲は散在している
確率 40%
23日の 02時(UTC)から 23日の 10時(UTC)まで
視程: 8000m
高度1400ftの千切れ雲あり
高度8000ftの曇り
雨, 霧雨
23日の 10時(UTC)から 23日の 12時(UTC)まで一時的に
視程: 5000m
高度1200ftの千切れ雲あり

TAF: MGGT 2212/2312 00000KT 9999 SCT014 SCT080 TX27/2220Z TN18/2212Z TEMPO 2212/2214 5000 BR DZ BKN012 BKN080 BECMG 2214/2216 18008KT SCT018 TEMPO 2219/2302 18012KT 7000 TSRA SCT020TCU FEW025CB BECMG 2302/2304 VRB03KT SCT014 PROB40 2302/2310 8000 RADZ BKN014 OVC080 TEMPO 2310/2312 5000 BR BKN012

4,000以上の空港の気象観測と天気予報(METAR報とTAF報)

利用可能な観測所は地図上に黄色い丸と赤い丸で示す。

丸の上にカーソルを重ねると観測所名を参照できる。

次にクリックすると気象観測と天気予報を参照できる。

マップの切り替え:黒色「×」印の緑ボタンをクリックして拡大、「-」印の緑ボタンをクリックして縮小、緑色の三角印をクリックして隣りの地図に切り替え


METAR-TAF: